Time;durP1;ratioP1;P1;durP2;ratioP2;P2;SDS_P1;SDS_P2;PMS_P1;PMS_P2;Temp;Humidity;BMP_temperature;BMP_pressure;BME280_temperature;BME280_humidity;BME280_pressure;Samples;Min_cycle;Max_cycle;Signal;HPM_P1;HPM_P2
2022/09/06 00:00:14;;;;;;;9.48;2.95;;;21.50;77.60;;;;;;5101164;27;37251;-58
2022/09/06 00:02:42;;;;;;;6.63;2.95;;;21.50;77.70;;;;;;5100449;27;36611;-58
2022/09/06 00:05:11;;;;;;;7.50;3.15;;;21.40;77.80;;;;;;5100377;27;38417;-58
2022/09/06 00:07:38;;;;;;;7.07;2.95;;;21.40;77.90;;;;;;5101015;27;37477;-58
2022/09/06 00:10:06;;;;;;;4.88;2.55;;;21.30;78.10;;;;;;5103212;27;38907;-58
2022/09/06 00:12:34;;;;;;;8.95;3.38;;;21.30;78.30;;;;;;5103451;27;36806;-58
2022/09/06 00:15:02;;;;;;;6.72;3.08;;;21.30;78.50;;;;;;5105004;27;38465;-58
2022/09/06 00:17:31;;;;;;;6.82;3.30;;;21.20;78.60;;;;;;5105452;27;38065;-58
2022/09/06 00:19:58;;;;;;;6.90;3.20;;;21.20;78.90;;;;;;5106013;27;37472;-57
2022/09/06 00:22:26;;;;;;;6.68;3.40;;;21.20;79.10;;;;;;5104140;27;38326;-58
2022/09/06 00:24:53;;;;;;;7.93;3.20;;;21.20;79.20;;;;;;5104596;27;37319;-58
2022/09/06 00:27:21;;;;;;;7.30;3.20;;;21.10;79.40;;;;;;5102807;27;38794;-57
2022/09/06 00:29:48;;;;;;;6.03;2.83;;;21.10;79.60;;;;;;5105519;27;36102;-58
2022/09/06 00:32:16;;;;;;;6.90;3.33;;;21.00;79.70;;;;;;5104910;27;36310;-58
2022/09/06 00:34:44;;;;;;;7.65;3.65;;;21.00;79.90;;;;;;5104277;27;37643;-58
2022/09/06 00:37:12;;;;;;;13.52;3.35;;;21.10;80.20;;;;;;5104271;27;37959;-58
2022/09/06 00:39:39;;;;;;;7.60;3.17;;;21.10;80.50;;;;;;5104461;27;38883;-58
2022/09/06 00:42:08;;;;;;;5.90;3.35;;;21.00;80.70;;;;;;5104559;27;37315;-58
2022/09/06 00:44:35;;;;;;;7.47;3.22;;;21.00;80.80;;;;;;5101680;27;38731;-57
2022/09/06 00:47:04;;;;;;;5.47;3.15;;;21.00;81.20;;;;;;5103009;27;38676;-57
2022/09/06 00:49:34;;;;;;;8.57;3.22;;;21.00;81.30;;;;;;5101300;27;38195;-57
2022/09/06 00:52:08;;;;;;;5.60;3.28;;;21.00;81.50;;;;;;5101220;27;36358;-57
2022/09/06 00:54:35;;;;;;;7.50;3.50;;;21.10;81.90;;;;;;5102205;27;37536;-58
2022/09/06 00:57:03;;;;;;;7.43;3.67;;;21.00;82.20;;;;;;5101717;27;38224;-58
2022/09/06 00:59:33;;;;;;;9.40;3.38;;;21.00;82.50;;;;;;5102470;27;36121;-57
2022/09/06 01:02:01;;;;;;;9.98;3.45;;;21.00;82.70;;;;;;5101727;27;36761;-58
2022/09/06 01:04:29;;;;;;;8.00;3.72;;;20.90;82.90;;;;;;5101645;27;38057;-58
2022/09/06 01:07:06;;;;;;;8.30;3.45;;;21.00;82.90;;;;;;5102496;27;38393;-57
2022/09/06 01:09:46;;;;;;;11.05;3.25;;;20.90;82.60;;;;;;5101451;27;38839;-57
2022/09/06 01:12:26;;;;;;;6.57;3.30;;;20.90;82.90;;;;;;5103310;27;35994;-57
2022/09/06 01:15:07;;;;;;;9.98;3.03;;;20.90;83.80;;;;;;5102300;27;38320;-58
2022/09/06 01:17:47;;;;;;;9.13;3.35;;;20.80;83.90;;;;;;5102964;27;37800;-57
2022/09/06 01:20:31;;;;;;;9.55;3.10;;;20.80;83.70;;;;;;5103732;27;39781;-58
2022/09/06 01:23:55;;;;;;;6.65;3.53;;;20.80;83.50;;;;;;5105171;27;37052;-57
2022/09/06 01:26:47;;;;;;;9.20;3.83;;;20.80;83.40;;;;;;5103498;27;37613;-57
2022/09/06 01:29:25;;;;;;;7.35;3.55;;;20.70;84.30;;;;;;5104674;27;38068;-58
2022/09/06 01:31:57;;;;;;;5.70;3.33;;;20.70;84.50;;;;;;5105744;27;36304;-58
2022/09/06 01:34:28;;;;;;;7.18;3.25;;;20.70;84.10;;;;;;5105027;27;35424;-57
2022/09/06 01:37:00;;;;;;;9.80;4.13;;;20.60;84.10;;;;;;5104461;27;36420;-57
2022/09/06 01:39:28;;;;;;;10.68;3.72;;;20.60;84.40;;;;;;5105578;27;36591;-58
2022/09/06 01:41:57;;;;;;;6.35;3.85;;;20.50;84.50;;;;;;5105828;27;36314;-58
2022/09/06 01:44:28;;;;;;;8.98;4.15;;;20.50;84.60;;;;;;5105641;27;37572;-57
2022/09/06 01:47:04;;;;;;;13.30;3.63;;;20.50;85.00;;;;;;5106438;27;38305;-58
2022/09/06 01:49:45;;;;;;;14.48;3.33;;;20.40;85.20;;;;;;5104645;27;37503;-57
2022/09/06 01:52:18;;;;;;;11.18;4.35;;;20.40;85.50;;;;;;5105460;27;39982;-57
2022/09/06 01:55:01;;;;;;;8.43;4.15;;;20.40;85.70;;;;;;5105109;27;36271;-57
2022/09/06 01:57:45;;;;;;;9.13;4.60;;;20.40;86.40;;;;;;5104701;27;37527;-57
2022/09/06 02:00:16;;;;;;;8.13;4.88;;;20.40;87.30;;;;;;5105387;27;36398;-57
2022/09/06 02:02:53;;;;;;;9.95;4.78;;;20.30;86.90;;;;;;5105330;27;36255;-57
2022/09/06 02:05:25;;;;;;;10.45;4.65;;;20.30;86.90;;;;;;5105282;27;36903;-57
2022/09/06 02:07:57;;;;;;;9.52;4.78;;;20.30;87.50;;;;;;5104880;27;37891;-57
2022/09/06 02:10:30;;;;;;;10.57;4.05;;;20.30;87.50;;;;;;5105059;27;36541;-57
2022/09/06 02:13:01;;;;;;;8.02;3.88;;;20.30;87.00;;;;;;5104569;27;38451;-57
2022/09/06 02:15:34;;;;;;;8.50;3.90;;;20.20;87.00;;;;;;5105618;27;37984;-58
2022/09/06 02:18:06;;;;;;;9.75;4.18;;;20.20;86.90;;;;;;5105391;27;37014;-57
2022/09/06 02:20:37;;;;;;;6.95;3.80;;;20.20;86.90;;;;;;5105314;27;38003;-58
2022/09/06 02:23:08;;;;;;;7.65;4.03;;;20.20;87.10;;;;;;5105021;27;37106;-57
2022/09/06 02:25:39;;;;;;;11.60;4.47;;;20.20;87.20;;;;;;5104238;27;36323;-58
2022/09/06 02:28:08;;;;;;;6.72;3.63;;;20.20;87.50;;;;;;5103123;27;37625;-58
2022/09/06 02:30:42;;;;;;;9.48;4.15;;;20.20;87.50;;;;;;5104042;27;37503;-57
2022/09/06 02:33:14;;;;;;;9.40;4.50;;;20.30;87.50;;;;;;5103436;27;38313;-57
2022/09/06 02:35:46;;;;;;;8.90;4.63;;;20.20;87.50;;;;;;5104565;27;35988;-58
2022/09/06 02:38:14;;;;;;;11.20;4.77;;;20.20;87.90;;;;;;5104576;27;37619;-58
2022/09/06 02:40:42;;;;;;;10.35;4.68;;;20.20;88.20;;;;;;5101334;27;38387;-57
2022/09/06 02:43:09;;;;;;;7.60;4.32;;;20.20;88.80;;;;;;5103865;27;38021;-58
2022/09/06 02:45:38;;;;;;;8.65;3.83;;;20.10;89.30;;;;;;5096728;27;36401;-57
2022/09/06 02:48:05;;;;;;;7.15;3.88;;;20.10;89.40;;;;;;5100499;27;39968;-57
2022/09/06 02:50:32;;;;;;;10.85;4.05;;;20.10;89.40;;;;;;5100473;27;39065;-57
2022/09/06 02:53:04;;;;;;;5.93;3.40;;;20.10;89.30;;;;;;5101694;27;38109;-57
2022/09/06 02:55:32;;;;;;;8.18;4.20;;;20.10;89.50;;;;;;5100526;27;37618;-57
2022/09/06 02:58:00;;;;;;;8.80;3.92;;;20.00;89.60;;;;;;5101196;27;38325;-57
2022/09/06 03:00:27;;;;;;;9.23;4.03;;;20.00;90.00;;;;;;5102322;27;38178;-58
2022/09/06 03:02:57;;;;;;;7.15;4.03;;;19.90;90.00;;;;;;5102537;27;38742;-57
2022/09/06 03:05:24;;;;;;;7.75;3.95;;;19.90;89.70;;;;;;5100771;27;36487;-57
2022/09/06 03:07:53;;;;;;;6.00;3.75;;;19.90;89.40;;;;;;5102675;27;37498;-57
2022/09/06 03:10:21;;;;;;;7.82;3.47;;;19.90;88.90;;;;;;5101016;27;37626;-57
2022/09/06 03:12:48;;;;;;;7.45;4.22;;;19.90;88.70;;;;;;5102476;27;37547;-57
2022/09/06 03:15:16;;;;;;;8.90;4.07;;;19.90;88.60;;;;;;5101800;27;35199;-57
2022/09/06 03:17:44;;;;;;;6.57;3.90;;;19.90;88.50;;;;;;5104022;27;36308;-57
2022/09/06 03:20:13;;;;;;;8.75;4.25;;;19.90;88.40;;;;;;5103616;27;39147;-57
2022/09/06 03:22:41;;;;;;;7.10;4.20;;;19.90;88.30;;;;;;5104411;27;39048;-57
2022/09/06 03:25:10;;;;;;;12.27;4.65;;;19.90;88.10;;;;;;5102719;27;36461;-57
2022/09/06 03:27:37;;;;;;;8.57;4.53;;;19.90;88.10;;;;;;5102756;27;37557;-58
2022/09/06 03:30:06;;;;;;;8.27;4.65;;;19.90;88.00;;;;;;5103429;27;37734;-58
2022/09/06 03:32:33;;;;;;;12.07;5.30;;;19.90;87.90;;;;;;5103421;27;37433;-57
2022/09/06 03:35:01;;;;;;;9.43;4.78;;;19.90;87.80;;;;;;5101818;27;35559;-58
2022/09/06 03:37:29;;;;;;;9.27;4.45;;;19.90;87.90;;;;;;5101703;27;36561;-58
2022/09/06 03:39:58;;;;;;;11.23;5.72;;;19.90;87.60;;;;;;5102994;27;37162;-57
2022/09/06 03:42:26;;;;;;;11.63;4.97;;;19.90;87.60;;;;;;5102568;27;36099;-57
2022/09/06 03:44:53;;;;;;;9.07;5.10;;;19.90;87.60;;;;;;5105130;27;36745;-58
2022/09/06 03:47:21;;;;;;;8.75;4.75;;;19.90;87.50;;;;;;5106666;27;38507;-57
2022/09/06 03:49:48;;;;;;;9.63;4.50;;;19.90;87.40;;;;;;5106193;27;38146;-57
2022/09/06 03:52:15;;;;;;;9.45;4.68;;;19.90;87.50;;;;;;5104533;27;37139;-57
2022/09/06 03:54:44;;;;;;;8.43;4.65;;;19.90;87.60;;;;;;5105960;27;37441;-57
2022/09/06 03:57:11;;;;;;;9.23;4.50;;;20.00;87.70;;;;;;5104310;27;38759;-57
2022/09/06 03:59:39;;;;;;;10.75;4.68;;;20.00;87.70;;;;;;5106179;27;37595;-57
2022/09/06 04:02:06;;;;;;;9.32;4.50;;;19.90;87.50;;;;;;5103728;27;38271;-57
2022/09/06 04:04:33;;;;;;;8.70;4.68;;;20.00;87.50;;;;;;5103239;27;35455;-57
2022/09/06 04:07:01;;;;;;;10.13;4.85;;;20.00;87.60;;;;;;5104901;27;37681;-57
2022/09/06 04:09:28;;;;;;;9.02;4.85;;;19.90;87.60;;;;;;5104862;27;37765;-57
2022/09/06 04:11:57;;;;;;;7.53;4.30;;;20.00;87.70;;;;;;5105811;27;37144;-58
2022/09/06 04:14:24;;;;;;;7.63;4.47;;;20.00;87.80;;;;;;5104341;27;35327;-57
2022/09/06 04:16:51;;;;;;;6.22;4.50;;;19.90;87.90;;;;;;5104545;27;37609;-57
2022/09/06 04:19:19;;;;;;;7.78;4.47;;;20.00;88.10;;;;;;5103962;27;37712;-57
2022/09/06 04:21:46;;;;;;;6.35;4.82;;;20.00;88.30;;;;;;5105168;27;36310;-57
2022/09/06 04:24:13;;;;;;;9.32;4.97;;;20.00;88.20;;;;;;5102961;27;36313;-57
2022/09/06 04:26:41;;;;;;;9.85;4.78;;;20.00;88.30;;;;;;5105070;27;37407;-57
2022/09/06 04:29:09;;;;;;;12.63;5.18;;;20.00;88.30;;;;;;5106186;27;37312;-57
2022/09/06 04:31:37;;;;;;;7.10;4.68;;;20.00;88.30;;;;;;5104602;27;37595;-57
2022/09/06 04:34:04;;;;;;;11.05;4.80;;;20.00;88.10;;;;;;5104431;27;37260;-57
2022/09/06 04:36:31;;;;;;;9.32;5.00;;;20.10;87.70;;;;;;5101510;27;36367;-57
2022/09/06 04:38:58;;;;;;;10.25;5.43;;;20.00;87.90;;;;;;5105722;27;37914;-57
2022/09/06 04:41:26;;;;;;;7.35;4.88;;;20.00;88.10;;;;;;5105167;27;37906;-57
2022/09/06 04:43:53;;;;;;;8.13;4.82;;;20.00;88.30;;;;;;5105217;27;36494;-57
2022/09/06 04:46:24;;;;;;;9.93;5.32;;;20.10;88.70;;;;;;5104577;27;38680;-57
2022/09/06 04:48:53;;;;;;;7.97;4.93;;;20.10;89.10;;;;;;5105014;27;38080;-57
2022/09/06 04:51:21;;;;;;;7.80;4.78;;;20.10;88.80;;;;;;5105286;27;37393;-57
2022/09/06 04:53:49;;;;;;;11.40;5.95;;;20.10;88.80;;;;;;5106465;27;36842;-57
2022/09/06 04:56:19;;;;;;;9.45;5.70;;;20.10;88.90;;;;;;5105078;27;36480;-57
2022/09/06 04:58:47;;;;;;;8.60;5.13;;;20.10;89.00;;;;;;5106795;27;37857;-57
2022/09/06 05:01:15;;;;;;;10.93;5.72;;;20.10;89.40;;;;;;5106014;27;38014;-57
2022/09/06 05:03:44;;;;;;;8.13;5.35;;;20.10;90.00;;;;;;5103091;27;36612;-57
2022/09/06 05:06:13;;;;;;;11.05;5.80;;;20.00;90.60;;;;;;5101438;27;39260;-57
2022/09/06 05:08:41;;;;;;;10.80;5.05;;;20.00;90.90;;;;;;5102375;27;37660;-57
2022/09/06 05:11:09;;;;;;;9.98;5.95;;;20.00;90.80;;;;;;5102451;27;39506;-57
2022/09/06 05:13:37;;;;;;;9.40;6.03;;;19.90;90.80;;;;;;5103287;27;36795;-58
2022/09/06 05:16:06;;;;;;;10.57;5.72;;;19.90;91.40;;;;;;5101318;27;36377;-57
2022/09/06 05:18:34;;;;;;;10.95;5.80;;;19.80;92.00;;;;;;5103235;27;37888;-57
2022/09/06 05:21:03;;;;;;;9.25;5.47;;;19.90;92.50;;;;;;5101316;27;37590;-57
2022/09/06 05:23:30;;;;;;;8.70;5.10;;;19.80;92.90;;;;;;5104013;27;36966;-57
2022/09/06 05:25:57;;;;;;;8.40;6.18;;;19.80;93.30;;;;;;5101424;27;37353;-57
2022/09/06 05:28:25;;;;;;;11.25;5.90;;;19.70;93.30;;;;;;5102306;27;37548;-57
2022/09/06 05:30:52;;;;;;;7.68;5.93;;;19.70;93.10;;;;;;5103987;27;37739;-57
2022/09/06 05:33:22;;;;;;;8.20;6.18;;;19.70;93.20;;;;;;5105393;27;36604;-58
2022/09/06 05:35:50;;;;;;;11.95;6.35;;;19.70;93.30;;;;;;5102671;27;37433;-57
2022/09/06 05:38:18;;;;;;;11.32;6.43;;;19.70;93.50;;;;;;5104251;27;36554;-57
2022/09/06 05:40:45;;;;;;;11.07;6.00;;;19.70;93.50;;;;;;5105111;27;36213;-57
2022/09/06 05:43:13;;;;;;;8.68;5.78;;;19.70;93.60;;;;;;5104710;27;36452;-57
2022/09/06 05:45:40;;;;;;;8.68;6.20;;;19.70;93.60;;;;;;5105929;27;37425;-57
2022/09/06 05:48:08;;;;;;;8.65;6.20;;;19.70;93.70;;;;;;5105702;27;38068;-57
2022/09/06 05:50:35;;;;;;;10.35;6.50;;;19.70;93.80;;;;;;5105006;27;38146;-57
2022/09/06 05:53:02;;;;;;;17.10;7.57;;;19.70;94.00;;;;;;5104425;27;35355;-57
2022/09/06 05:55:31;;;;;;;9.05;6.18;;;19.70;94.10;;;;;;5103826;27;39240;-57
2022/09/06 05:57:58;;;;;;;9.30;7.00;;;19.70;94.10;;;;;;5103467;27;37737;-57
2022/09/06 06:00:25;;;;;;;13.18;7.20;;;19.60;94.20;;;;;;5103518;27;37431;-58
2022/09/06 06:02:53;;;;;;;9.00;6.32;;;19.70;94.40;;;;;;5104516;27;35389;-57
2022/09/06 06:05:20;;;;;;;13.23;7.82;;;19.70;94.50;;;;;;5104894;27;38410;-57
2022/09/06 06:07:47;;;;;;;10.18;6.85;;;19.70;94.80;;;;;;5101515;27;38137;-57
2022/09/06 06:10:15;;;;;;;12.40;6.82;;;19.70;95.00;;;;;;5104580;27;37473;-57
2022/09/06 06:12:43;;;;;;;9.63;6.93;;;19.70;95.20;;;;;;5105341;27;36549;-57
2022/09/06 06:15:11;;;;;;;8.05;7.00;;;19.70;95.40;;;;;;5105775;27;37499;-57
2022/09/06 06:17:38;;;;;;;10.10;6.88;;;19.70;95.60;;;;;;5103418;27;37581;-57
2022/09/06 06:20:07;;;;;;;11.07;7.07;;;19.70;95.60;;;;;;5104783;27;37467;-58
2022/09/06 06:22:34;;;;;;;12.77;7.30;;;19.70;95.70;;;;;;5103133;27;35977;-58
2022/09/06 06:25:01;;;;;;;9.88;7.10;;;19.70;95.80;;;;;;5103371;27;37530;-57
2022/09/06 06:27:29;;;;;;;15.00;7.22;;;19.70;95.70;;;;;;5104604;27;39148;-58
2022/09/06 06:29:57;;;;;;;11.27;7.07;;;19.70;95.60;;;;;;5105301;27;38419;-57
2022/09/06 06:32:25;;;;;;;12.55;7.50;;;19.70;95.30;;;;;;5103414;27;36765;-57
2022/09/06 06:34:52;;;;;;;13.40;7.75;;;19.70;95.20;;;;;;5102472;27;38455;-57
2022/09/06 06:37:19;;;;;;;12.88;7.55;;;19.70;95.20;;;;;;5102602;27;38322;-57
2022/09/06 06:39:47;;;;;;;16.63;8.40;;;19.70;95.30;;;;;;5102418;27;38613;-57
2022/09/06 06:42:14;;;;;;;10.70;7.85;;;19.70;95.40;;;;;;5102219;27;35408;-57
2022/09/06 06:44:42;;;;;;;11.25;9.32;;;19.80;95.50;;;;;;5103730;27;39968;-57
2022/09/06 06:47:10;;;;;;;13.50;8.48;;;19.70;95.50;;;;;;5102836;27;38237;-57
2022/09/06 06:49:38;;;;;;;13.25;8.60;;;19.80;95.70;;;;;;5102310;27;37648;-57
2022/09/06 06:52:05;;;;;;;10.50;7.93;;;19.70;95.50;;;;;;5104045;27;35319;-57
2022/09/06 06:54:33;;;;;;;12.63;8.55;;;19.80;95.50;;;;;;5103718;27;40342;-57
2022/09/06 06:57:00;;;;;;;11.68;8.15;;;19.80;95.50;;;;;;5103134;27;37482;-58
2022/09/06 06:59:27;;;;;;;11.10;8.23;;;19.80;95.50;;;;;;5104243;27;36131;-57
2022/09/06 07:01:55;;;;;;;12.07;9.15;;;19.80;95.50;;;;;;5105116;27;38026;-57
2022/09/06 07:04:23;;;;;;;11.75;8.13;;;19.80;95.60;;;;;;5102388;27;37655;-57
2022/09/06 07:06:52;;;;;;;12.15;7.43;;;19.90;95.70;;;;;;5105290;27;39124;-57
2022/09/06 07:09:20;;;;;;;10.88;7.40;;;19.90;95.70;;;;;;5104053;27;38454;-58
2022/09/06 07:11:48;;;;;;;10.10;7.18;;;19.90;95.70;;;;;;5101376;27;36411;-58
2022/09/06 07:14:16;;;;;;;10.38;7.78;;;19.90;95.40;;;;;;5102914;27;36232;-57
2022/09/06 07:16:44;;;;;;;10.10;8.00;;;19.90;95.40;;;;;;5104874;27;38046;-57
2022/09/06 07:19:11;;;;;;;12.98;7.78;;;19.90;95.50;;;;;;5106368;27;39995;-58
2022/09/06 07:21:40;;;;;;;13.52;7.65;;;20.00;95.40;;;;;;5107832;27;36628;-57
2022/09/06 07:24:07;;;;;;;13.75;8.05;;;19.90;95.50;;;;;;5106910;27;38313;-58
2022/09/06 07:26:35;;;;;;;10.13;7.93;;;19.90;95.60;;;;;;5107444;27;36411;-57
2022/09/06 07:29:05;;;;;;;15.38;8.35;;;20.00;95.80;;;;;;5106919;27;36326;-57
2022/09/06 07:31:33;;;;;;;10.68;7.65;;;20.00;95.90;;;;;;5103805;27;36497;-58
2022/09/06 07:34:00;;;;;;;11.38;7.63;;;20.10;95.90;;;;;;5100448;27;37532;-58
2022/09/06 07:36:28;;;;;;;12.68;8.27;;;20.10;96.00;;;;;;5103683;27;38834;-57
2022/09/06 07:38:56;;;;;;;10.10;8.02;;;20.10;95.90;;;;;;5104374;27;37896;-58
2022/09/06 07:41:24;;;;;;;9.30;7.32;;;20.20;95.70;;;;;;5106543;27;38505;-57
2022/09/06 07:43:54;;;;;;;13.35;8.15;;;20.30;95.60;;;;;;5104111;27;36367;-57
2022/09/06 07:46:21;;;;;;;11.38;8.40;;;20.30;95.80;;;;;;5104933;27;38915;-57
2022/09/06 07:48:49;;;;;;;10.18;8.38;;;20.30;95.90;;;;;;5105901;27;37432;-57
2022/09/06 07:51:18;;;;;;;13.02;8.68;;;20.40;95.90;;;;;;5106893;27;35300;-57
2022/09/06 07:53:50;;;;;;;10.65;8.98;;;20.40;95.70;;;;;;5104487;27;38115;-58
2022/09/06 07:56:21;;;;;;;13.63;8.55;;;20.60;95.60;;;;;;5103874;27;39750;-60
2022/09/06 07:58:49;;;;;;;10.93;8.15;;;20.60;95.40;;;;;;5104861;27;36160;-57
2022/09/06 08:01:27;;;;;;;10.73;8.10;;;20.70;95.30;;;;;;5105817;27;37694;-57
2022/09/06 08:03:54;;;;;;;11.05;8.23;;;20.70;95.40;;;;;;5104980;27;36456;-57
2022/09/06 08:06:22;;;;;;;13.40;8.75;;;20.80;95.40;;;;;;5107591;27;38773;-58
2022/09/06 08:08:50;;;;;;;10.40;8.35;;;20.80;95.20;;;;;;5102313;27;38846;-57
2022/09/06 08:11:19;;;;;;;13.18;8.60;;;20.90;95.00;;;;;;5105222;27;35413;-58
2022/09/06 08:13:49;;;;;;;12.57;9.05;;;20.90;94.70;;;;;;5106278;27;37568;-57
2022/09/06 08:16:18;;;;;;;12.07;8.57;;;21.00;94.70;;;;;;5107422;27;38211;-57
2022/09/06 08:18:50;;;;;;;11.75;9.40;;;21.00;94.60;;;;;;5107220;27;37395;-58
2022/09/06 08:21:17;;;;;;;12.27;8.68;;;21.00;94.50;;;;;;5104784;27;37259;-58
2022/09/06 08:23:48;;;;;;;14.07;9.60;;;21.10;94.40;;;;;;5105668;27;37181;-57
2022/09/06 08:26:16;;;;;;;13.27;9.65;;;21.10;94.50;;;;;;5105995;27;37635;-57
2022/09/06 08:28:45;;;;;;;13.70;8.57;;;21.30;94.60;;;;;;5106688;27;37367;-57
2022/09/06 08:31:13;;;;;;;13.18;8.57;;;21.30;94.40;;;;;;5102918;27;36508;-57
2022/09/06 08:33:42;;;;;;;10.38;9.00;;;21.40;94.20;;;;;;5104228;27;38027;-57
2022/09/06 08:36:11;;;;;;;11.98;9.27;;;21.50;94.00;;;;;;5105143;27;38266;-57
2022/09/06 08:38:38;;;;;;;11.82;8.77;;;21.60;93.90;;;;;;5103580;27;37433;-58
2022/09/06 08:41:09;;;;;;;13.45;9.07;;;21.70;93.50;;;;;;5104455;27;36667;-58
2022/09/06 08:43:37;;;;;;;13.15;9.52;;;21.80;93.30;;;;;;5104484;27;35972;-57
2022/09/06 08:46:07;;;;;;;10.23;8.43;;;21.90;93.50;;;;;;5104393;27;36510;-57
2022/09/06 08:48:38;;;;;;;12.65;9.77;;;22.00;93.00;;;;;;5104358;27;38532;-57
2022/09/06 08:51:21;;;;;;;10.65;9.07;;;22.10;93.00;;;;;;5103671;27;36531;-58
2022/09/06 08:53:49;;;;;;;9.50;8.48;;;22.10;92.80;;;;;;5103123;27;36337;-58
2022/09/06 08:56:22;;;;;;;10.88;9.07;;;22.30;92.60;;;;;;5104022;27;38127;-58
2022/09/06 08:59:03;;;;;;;13.73;9.25;;;22.30;92.40;;;;;;5100705;27;36108;-57
2022/09/06 09:01:37;;;;;;;10.48;7.82;;;22.40;92.00;;;;;;5104719;27;38400;-57
2022/09/06 09:04:09;;;;;;;10.75;8.70;;;22.50;91.70;;;;;;5103356;27;37613;-57
2022/09/06 09:06:37;;;;;;;9.43;8.23;;;22.60;91.60;;;;;;5105421;27;38212;-57
2022/09/06 09:09:06;;;;;;;12.48;8.85;;;22.70;91.20;;;;;;5105457;27;37425;-58
2022/09/06 09:11:35;;;;;;;9.95;8.27;;;22.80;91.10;;;;;;5103011;27;37413;-58
2022/09/06 09:14:05;;;;;;;11.73;8.40;;;22.80;91.20;;;;;;5103081;27;37474;-58
2022/09/06 09:16:34;;;;;;;10.13;8.02;;;23.00;91.00;;;;;;5105243;27;36537;-57
2022/09/06 09:19:04;;;;;;;11.43;8.25;;;23.00;90.90;;;;;;5105888;27;38343;-58
2022/09/06 09:21:36;;;;;;;10.93;8.43;;;23.10;90.80;;;;;;5105736;27;37580;-58
2022/09/06 09:24:06;;;;;;;11.00;7.88;;;23.20;90.70;;;;;;5104805;27;37725;-58
2022/09/06 09:26:40;;;;;;;10.88;7.80;;;23.10;90.20;;;;;;5106005;27;38750;-58
2022/09/06 09:29:10;;;;;;;12.13;7.68;;;23.30;90.10;;;;;;5106176;27;36341;-58
2022/09/06 09:31:41;;;;;;;12.45;8.00;;;23.40;90.00;;;;;;5105662;27;36631;-58
2022/09/06 09:34:12;;;;;;;12.13;8.13;;;23.50;89.60;;;;;;5105846;27;36331;-58
2022/09/06 09:36:39;;;;;;;13.05;8.82;;;23.60;88.70;;;;;;5106204;27;36582;-58
2022/09/06 09:39:10;;;;;;;11.32;8.07;;;23.50;88.50;;;;;;5105916;27;38495;-58
2022/09/06 09:41:41;;;;;;;8.88;7.03;;;23.40;87.90;;;;;;5105973;27;36635;-58
2022/09/06 09:44:11;;;;;;;12.05;8.38;;;23.30;88.60;;;;;;5105529;27;38080;-57
2022/09/06 09:46:40;;;;;;;13.20;7.25;;;23.20;88.90;;;;;;5105537;27;37809;-58
2022/09/06 09:49:10;;;;;;;12.45;7.57;;;23.20;89.00;;;;;;5103833;27;38584;-57
2022/09/06 09:51:39;;;;;;;11.70;7.68;;;23.30;89.50;;;;;;5102657;27;35496;-57
2022/09/06 09:54:08;;;;;;;9.80;6.90;;;23.50;89.70;;;;;;5103783;27;37424;-58
2022/09/06 09:56:47;;;;;;;9.73;7.55;;;23.60;88.20;;;;;;5104997;27;37538;-57
2022/09/06 09:59:23;;;;;;;9.98;7.00;;;23.70;87.30;;;;;;5103168;27;38076;-58
2022/09/06 10:01:54;;;;;;;9.98;6.30;;;23.90;87.10;;;;;;5099358;27;37328;-58
2022/09/06 10:04:29;;;;;;;12.45;6.50;;;24.10;86.20;;;;;;5103605;27;37833;-57
2022/09/06 10:07:08;;;;;;;9.65;6.25;;;24.20;84.60;;;;;;5105583;27;38434;-58
2022/09/06 10:09:37;;;;;;;9.80;5.78;;;24.30;84.50;;;;;;5104912;27;37139;-57
2022/09/06 10:12:05;;;;;;;8.32;6.45;;;24.40;84.00;;;;;;5105094;27;35514;-58
2022/09/06 10:14:39;;;;;;;9.60;7.53;;;24.60;83.30;;;;;;5105846;27;37035;-58
2022/09/06 10:17:08;;;;;;;12.55;8.00;;;24.70;82.90;;;;;;5102501;27;37929;-58
2022/09/06 10:19:41;;;;;;;12.32;7.47;;;24.80;82.60;;;;;;5105814;27;37007;-58
2022/09/06 10:22:20;;;;;;;11.60;7.95;;;24.80;81.70;;;;;;5105394;27;36934;-58
2022/09/06 10:25:00;;;;;;;12.02;8.23;;;25.00;82.00;;;;;;5104882;27;37534;-58
2022/09/06 10:27:27;;;;;;;10.25;7.55;;;25.00;80.90;;;;;;5105149;27;37633;-58
2022/09/06 10:30:00;;;;;;;9.70;8.25;;;25.10;80.70;;;;;;5105720;27;37483;-58
2022/09/06 10:32:40;;;;;;;14.13;8.70;;;25.20;80.40;;;;;;5105391;27;37134;-58
2022/09/06 10:35:15;;;;;;;11.45;7.95;;;25.30;79.80;;;;;;5105102;27;37216;-58
2022/09/06 10:37:50;;;;;;;10.02;7.30;;;25.40;79.00;;;;;;5103705;27;38784;-58
2022/09/06 10:40:30;;;;;;;10.55;7.55;;;25.30;78.20;;;;;;5103493;27;37583;-58
2022/09/06 10:43:00;;;;;;;14.68;8.52;;;25.30;79.20;;;;;;5105803;27;36820;-58
2022/09/06 10:45:34;;;;;;;12.52;7.97;;;25.30;79.20;;;;;;5105118;27;39431;-58
2022/09/06 10:48:08;;;;;;;13.15;8.02;;;25.40;79.80;;;;;;5102206;27;37562;-58
2022/09/06 10:50:42;;;;;;;11.80;9.55;;;25.50;79.40;;;;;;5103503;27;37462;-58
2022/09/06 10:53:16;;;;;;;13.50;8.65;;;25.60;78.40;;;;;;5102993;27;37245;-58
2022/09/06 10:55:46;;;;;;;17.17;9.88;;;25.60;78.30;;;;;;5103912;27;39049;-58
2022/09/06 10:58:16;;;;;;;12.40;9.27;;;25.70;78.10;;;;;;5104904;27;39148;-58
2022/09/06 11:00:46;;;;;;;15.18;10.02;;;25.80;77.90;;;;;;5104664;27;37145;-58
2022/09/06 11:03:23;;;;;;;12.93;9.18;;;25.80;78.00;;;;;;5103516;27;36581;-58
2022/09/06 11:05:53;;;;;;;12.75;9.05;;;25.90;78.10;;;;;;5103391;27;37529;-58
2022/09/06 11:08:24;;;;;;;10.70;7.28;;;26.00;77.20;;;;;;5104584;27;37798;-58
2022/09/06 11:10:54;;;;;;;10.60;8.25;;;26.00;77.10;;;;;;5104501;27;37487;-58
2022/09/06 11:13:24;;;;;;;13.85;8.77;;;26.10;77.00;;;;;;5104683;27;36725;-58
2022/09/06 11:16:04;;;;;;;9.48;8.02;;;26.10;75.60;;;;;;5102259;27;37597;-58
2022/09/06 11:18:38;;;;;;;12.45;8.18;;;26.20;75.70;;;;;;5103516;27;37889;-58
2022/09/06 11:21:30;;;;;;;13.80;9.30;;;26.20;75.30;;;;;;5101299;27;39271;-58
2022/09/06 11:24:07;;;;;;;10.90;8.70;;;26.20;74.50;;;;;;5104266;27;36326;-58
2022/09/06 11:26:42;;;;;;;12.05;7.53;;;26.30;74.40;;;;;;5100553;27;38111;-58
2022/09/06 11:29:17;;;;;;;11.45;7.72;;;26.30;74.40;;;;;;5100742;27;37824;-58
2022/09/06 11:31:55;;;;;;;8.30;6.80;;;26.30;74.20;;;;;;5102233;27;36606;-58
2022/09/06 11:34:26;;;;;;;10.00;8.10;;;26.30;74.70;;;;;;5103521;27;35392;-58
2022/09/06 11:36:57;;;;;;;10.30;8.13;;;26.20;73.20;;;;;;5102404;27;37568;-58
2022/09/06 11:39:30;;;;;;;14.80;7.53;;;26.00;73.60;;;;;;5101298;27;37672;-58
2022/09/06 11:41:58;;;;;;;9.05;7.05;;;25.90;73.60;;;;;;5098942;27;39180;-58
2022/09/06 11:44:52;;;;;;;8.13;6.03;;;25.90;74.60;;;;;;5101917;27;37339;-58
2022/09/06 11:47:40;;;;;;;10.25;6.70;;;25.90;74.00;;;;;;5102738;27;39040;-58
2022/09/06 11:50:42;;;;;;;11.00;6.93;;;26.00;74.30;;;;;;5099395;27;39622;-58
2022/09/06 11:53:15;;;;;;;12.55;7.30;;;26.10;75.20;;;;;;5097000;27;36246;-58
2022/09/06 11:55:45;;;;;;;10.73;7.30;;;26.30;74.20;;;;;;5100281;27;36639;-59
2022/09/06 11:58:23;;;;;;;12.18;6.78;;;26.30;73.40;;;;;;5102399;27;37451;-58
2022/09/06 12:01:32;;;;;;;11.82;6.75;;;26.40;73.40;;;;;;5102436;27;37525;-58
2022/09/06 12:04:01;;;;;;;8.23;5.85;;;26.50;72.30;;;;;;5101915;27;38899;-58
2022/09/06 12:06:34;;;;;;;9.38;5.10;;;26.50;72.10;;;;;;5104538;27;36084;-58
2022/09/06 12:09:02;;;;;;;8.98;5.97;;;26.50;72.20;;;;;;5105694;27;36387;-58
2022/09/06 12:11:36;;;;;;;7.72;5.35;;;26.50;71.40;;;;;;5106401;27;38153;-58
2022/09/06 12:14:06;;;;;;;7.63;5.28;;;26.50;71.30;;;;;;5106904;27;38572;-58
2022/09/06 12:17:25;;;;;;;12.27;5.75;;;26.40;70.80;;;;;;5106847;27;35548;-58
2022/09/06 12:19:54;;;;;;;6.97;4.40;;;26.40;70.40;;;;;;5106561;27;40291;-58
2022/09/06 12:22:53;;;;;;;9.32;4.85;;;26.40;71.30;;;;;;5106228;27;37749;-58
2022/09/06 12:25:57;;;;;;;8.32;5.28;;;26.30;72.00;;;;;;5102354;27;36541;-58
2022/09/06 12:28:35;;;;;;;9.43;4.95;;;26.30;70.80;;;;;;5105199;27;37102;-58
2022/09/06 12:31:32;;;;;;;9.27;5.30;;;26.30;70.70;;;;;;5103824;27;37733;-58
2022/09/06 12:34:06;;;;;;;10.75;4.70;;;26.30;70.40;;;;;;5105037;27;37532;-58
2022/09/06 12:36:34;;;;;;;7.13;4.95;;;26.30;70.80;;;;;;5105191;27;38839;-58
2022/09/06 12:39:04;;;;;;;8.32;4.68;;;26.30;70.80;;;;;;5106803;27;36895;-58
2022/09/06 12:41:38;;;;;;;6.65;4.75;;;26.30;71.20;;;;;;5105012;27;38754;-58
2022/09/06 12:44:07;;;;;;;10.40;4.97;;;26.30;70.90;;;;;;5102199;27;37525;-58
2022/09/06 12:46:35;;;;;;;13.40;5.70;;;26.20;70.70;;;;;;5104760;27;38264;-58
2022/09/06 12:49:07;;;;;;;7.65;4.20;;;26.20;70.30;;;;;;5105299;27;37122;-58
2022/09/06 12:51:36;;;;;;;8.07;4.30;;;26.20;70.70;;;;;;5105241;27;37581;-58
2022/09/06 12:54:05;;;;;;;6.72;4.43;;;26.10;70.90;;;;;;5106015;27;37816;-58
2022/09/06 12:56:34;;;;;;;9.02;4.65;;;26.10;71.20;;;;;;5105487;27;37305;-58
2022/09/06 12:59:16;;;;;;;11.23;4.88;;;26.10;71.90;;;;;;5106046;27;37243;-58